createdAt,value
2018-11-06T00:02:01.722Z,31.33
2018-11-06T00:04:34.835Z,31.23
2018-11-06T00:07:02.446Z,31.00
2018-11-06T00:09:29.967Z,29.07
2018-11-06T00:11:58.232Z,30.77
2018-11-06T00:14:25.766Z,29.83
2018-11-06T00:16:53.233Z,28.67
2018-11-06T00:19:21.608Z,27.40
2018-11-06T00:21:49.140Z,25.23
2018-11-06T00:24:16.624Z,25.93
2018-11-06T00:26:44.152Z,27.63
2018-11-06T00:29:11.671Z,26.13
2018-11-06T00:31:39.107Z,26.97
2018-11-06T00:34:06.628Z,25.97
2018-11-06T00:36:34.124Z,26.43
2018-11-06T00:39:01.656Z,24.30
2018-11-06T00:41:29.132Z,22.70
2018-11-06T00:43:56.684Z,23.20
2018-11-06T00:46:24.345Z,23.63
2018-11-06T00:48:51.878Z,23.70
2018-11-06T00:51:19.611Z,24.60
2018-11-06T00:53:47.192Z,22.50
2018-11-06T00:56:14.877Z,22.70
2018-11-06T00:58:42.513Z,24.30
2018-11-06T01:01:10.012Z,21.50
2018-11-06T01:03:43.928Z,24.33
2018-11-06T01:06:11.439Z,28.37
2018-11-06T01:08:39.453Z,25.07
2018-11-06T01:11:07.002Z,33.90
2018-11-06T01:13:35.189Z,29.03
2018-11-06T01:16:02.752Z,28.20
2018-11-06T01:18:30.283Z,28.93
2018-11-06T01:20:57.898Z,28.40
2018-11-06T01:23:25.358Z,27.20
2018-11-06T01:25:53.024Z,25.97
2018-11-06T01:28:20.700Z,26.00
2018-11-06T01:30:48.172Z,24.07
2018-11-06T01:33:15.747Z,26.17
2018-11-06T01:35:43.294Z,26.47
2018-11-06T01:38:10.811Z,26.47
2018-11-06T01:40:38.430Z,26.57
2018-11-06T01:43:06.002Z,24.67
2018-11-06T01:45:33.782Z,24.93
2018-11-06T01:48:01.396Z,22.80
2018-11-06T01:50:29.103Z,24.23
2018-11-06T01:52:56.648Z,23.17
2018-11-06T01:55:24.422Z,23.97
2018-11-06T01:57:52.066Z,21.80
2018-11-06T02:00:19.571Z,23.63
2018-11-06T02:02:47.469Z,22.83
2018-11-06T02:05:16.112Z,21.37
2018-11-06T02:07:44.977Z,22.83
2018-11-06T02:10:13.439Z,21.60
2018-11-06T02:12:42.246Z,21.97
2018-11-06T02:15:09.904Z,19.60
2018-11-06T02:17:38.762Z,18.30
2018-11-06T02:20:06.696Z,18.80
2018-11-06T02:22:35.449Z,20.90
2018-11-06T02:25:02.976Z,19.73
2018-11-06T02:27:30.441Z,18.37
2018-11-06T02:29:57.896Z,18.73
2018-11-06T02:32:25.498Z,19.43
2018-11-06T02:34:52.859Z,18.50
2018-11-06T02:37:20.334Z,19.53
2018-11-06T02:39:47.829Z,19.70
2018-11-06T02:42:15.724Z,19.17
2018-11-06T02:44:43.218Z,19.57
2018-11-06T02:47:10.743Z,20.20
2018-11-06T02:49:38.699Z,19.47
2018-11-06T02:52:06.250Z,19.13
2018-11-06T02:54:33.764Z,18.80
2018-11-06T02:57:01.271Z,19.67
2018-11-06T02:59:28.800Z,18.83
2018-11-06T03:01:56.249Z,16.97
2018-11-06T03:04:23.852Z,19.07
2018-11-06T03:06:51.374Z,17.80
2018-11-06T03:09:18.978Z,18.00
2018-11-06T03:11:46.551Z,18.40
2018-11-06T03:14:14.074Z,18.70
2018-11-06T03:16:41.685Z,18.33
2018-11-06T03:19:09.151Z,19.13
2018-11-06T03:21:36.768Z,18.03
2018-11-06T03:24:04.758Z,18.47
2018-11-06T03:26:32.291Z,18.57
2018-11-06T03:28:59.796Z,20.37
2018-11-06T03:31:27.300Z,20.43
2018-11-06T03:33:54.819Z,21.47
2018-11-06T03:36:22.299Z,20.63
2018-11-06T03:38:49.795Z,21.23
2018-11-06T03:41:17.422Z,24.40
2018-11-06T03:43:46.394Z,23.37
2018-11-06T03:46:14.116Z,24.97
2018-11-06T03:48:41.636Z,23.70
2018-11-06T03:51:09.083Z,26.57
2018-11-06T03:53:36.639Z,26.63
2018-11-06T03:56:04.947Z,26.87
2018-11-06T03:58:32.491Z,26.73
2018-11-06T04:01:00.007Z,27.47
2018-11-06T04:03:27.427Z,27.27
2018-11-06T04:05:54.943Z,31.27
2018-11-06T04:08:22.429Z,30.30
2018-11-06T04:10:49.928Z,27.87
2018-11-06T04:13:17.505Z,28.20
2018-11-06T04:15:45.486Z,29.73
2018-11-06T04:18:13.088Z,30.13
2018-11-06T04:20:40.559Z,28.07
2018-11-06T04:23:08.108Z,28.30
2018-11-06T04:25:35.568Z,29.77
2018-11-06T04:28:03.047Z,33.40
2018-11-06T04:30:30.772Z,36.03
2018-11-06T04:32:58.268Z,30.03
2018-11-06T04:35:25.756Z,30.37
2018-11-06T04:37:53.312Z,33.63
2018-11-06T04:40:20.766Z,30.43
2018-11-06T04:42:48.260Z,29.67
2018-11-06T04:45:15.748Z,30.73
2018-11-06T04:47:43.290Z,30.27
2018-11-06T04:50:11.068Z,30.23
2018-11-06T04:52:38.688Z,30.47
2018-11-06T04:55:07.680Z,30.10
2018-11-06T04:57:35.512Z,30.17
2018-11-06T05:00:03.054Z,28.83
2018-11-06T05:02:31.464Z,30.20
2018-11-06T05:04:58.946Z,30.87
2018-11-06T05:07:26.451Z,30.17
2018-11-06T05:09:54.029Z,29.87
2018-11-06T05:12:21.486Z,29.40
2018-11-06T05:14:49.002Z,36.63
2018-11-06T05:17:16.475Z,33.77
2018-11-06T05:19:43.915Z,35.30
2018-11-06T05:22:11.408Z,38.83
2018-11-06T05:24:38.832Z,33.70
2018-11-06T05:27:06.277Z,34.90
2018-11-06T05:29:33.913Z,35.20
2018-11-06T05:32:01.392Z,31.47
2018-11-06T05:34:28.915Z,31.77
2018-11-06T05:36:56.443Z,29.43
2018-11-06T05:39:23.944Z,28.07
2018-11-06T05:41:51.444Z,29.07
2018-11-06T05:44:18.899Z,28.20
2018-11-06T05:46:46.354Z,27.80
2018-11-06T05:49:14.343Z,26.67
2018-11-06T05:51:41.834Z,26.13
2018-11-06T05:54:09.303Z,29.50
2018-11-06T05:56:36.871Z,28.10
2018-11-06T05:59:04.339Z,28.87
2018-11-06T06:01:31.764Z,28.10
2018-11-06T06:03:59.252Z,28.40
2018-11-06T06:06:26.760Z,30.50
2018-11-06T06:08:54.189Z,27.63
2018-11-06T06:11:23.147Z,30.00
2018-11-06T06:13:51.095Z,30.03
2018-11-06T06:16:19.239Z,33.57
2018-11-06T06:18:47.169Z,33.63
2018-11-06T06:21:15.073Z,33.20
2018-11-06T06:23:42.640Z,32.57
2018-11-06T06:26:10.176Z,29.80
2018-11-06T06:28:37.721Z,30.37
2018-11-06T06:31:05.172Z,31.77
2018-11-06T06:33:32.660Z,33.03
2018-11-06T06:36:00.124Z,31.50
2018-11-06T06:38:27.567Z,31.40
2018-11-06T06:40:55.115Z,33.67
2018-11-06T06:43:22.520Z,33.67
2018-11-06T06:45:50.073Z,31.37
2018-11-06T06:48:17.528Z,33.13
2018-11-06T06:50:45.030Z,30.57
2018-11-06T06:53:12.492Z,32.10
2018-11-06T06:55:39.971Z,32.03
2018-11-06T06:58:07.525Z,32.77
2018-11-06T07:00:34.979Z,33.67
2018-11-06T07:03:02.411Z,35.10
2018-11-06T07:05:29.903Z,34.00
2018-11-06T07:07:57.455Z,35.00
2018-11-06T07:10:24.924Z,34.00
2018-11-06T07:12:52.445Z,37.13
2018-11-06T07:15:21.221Z,36.43
2018-11-06T07:17:49.420Z,38.70
2018-11-06T07:20:19.247Z,37.20
2018-11-06T07:22:46.734Z,34.67
2018-11-06T07:25:14.668Z,35.10
2018-11-06T07:27:43.156Z,37.50
2018-11-06T07:30:13.319Z,35.57
2018-11-06T07:32:41.370Z,33.00
2018-11-06T07:35:09.585Z,34.57
2018-11-06T07:37:37.836Z,33.03
2018-11-06T07:40:05.934Z,32.33
2018-11-06T07:42:33.425Z,30.97
2018-11-06T07:45:00.908Z,30.80
2018-11-06T07:47:28.886Z,30.70
2018-11-06T07:49:56.417Z,29.97
2018-11-06T07:52:23.847Z,33.10
2018-11-06T07:54:51.348Z,32.37
2018-11-06T07:57:18.811Z,27.83
2018-11-06T07:59:46.264Z,27.77
2018-11-06T08:02:13.782Z,29.33
2018-11-06T08:04:41.312Z,28.70
2018-11-06T08:07:08.810Z,27.57
2018-11-06T08:09:36.294Z,26.33
2018-11-06T08:12:04.273Z,29.33
2018-11-06T08:14:31.792Z,27.40
2018-11-06T08:16:59.225Z,27.60
2018-11-06T08:19:26.748Z,26.27
2018-11-06T08:21:54.246Z,25.60
2018-11-06T08:24:21.699Z,25.07
2018-11-06T08:26:49.199Z,25.07
2018-11-06T08:29:16.661Z,23.20
2018-11-06T08:31:44.365Z,23.47
2018-11-06T08:34:11.831Z,20.93
2018-11-06T08:36:39.374Z,21.73
2018-11-06T08:39:08.709Z,22.70
2018-11-06T08:41:36.293Z,20.20
2018-11-06T08:44:04.168Z,21.93
2018-11-06T08:46:31.946Z,20.70
2018-11-06T08:48:59.418Z,20.63
2018-11-06T08:51:26.873Z,21.53
2018-11-06T08:53:54.402Z,20.57
2018-11-06T08:56:21.947Z,20.80
2018-11-06T08:58:49.519Z,20.53
2018-11-06T09:01:17.442Z,21.00
2018-11-06T09:03:44.888Z,19.93
2018-11-06T09:06:12.352Z,20.57
2018-11-06T09:08:39.861Z,20.90
2018-11-06T09:11:07.393Z,21.80
2018-11-06T09:13:34.892Z,22.73
2018-11-06T09:16:02.605Z,22.30
2018-11-06T09:18:30.099Z,21.40
2018-11-06T09:20:57.680Z,22.80
2018-11-06T09:23:25.212Z,23.67
2018-11-06T09:25:52.676Z,22.87
2018-11-06T09:28:20.196Z,22.63
2018-11-06T09:30:47.912Z,20.77
2018-11-06T09:33:15.325Z,22.13
2018-11-06T09:35:43.241Z,22.67
2018-11-06T09:38:10.696Z,23.63
2018-11-06T09:40:38.132Z,21.87
2018-11-06T09:43:07.590Z,23.27
2018-11-06T09:45:35.191Z,21.93
2018-11-06T09:48:02.568Z,22.73
2018-11-06T09:50:30.055Z,21.43
2018-11-06T09:52:57.511Z,21.27
2018-11-06T09:55:28.421Z,23.07
2018-11-06T09:57:58.316Z,22.27
2018-11-06T10:00:25.880Z,21.97
2018-11-06T10:02:53.330Z,22.00
2018-11-06T10:05:20.793Z,22.17
2018-11-06T10:07:48.292Z,22.03
2018-11-06T10:10:16.800Z,20.73
2018-11-06T10:12:45.318Z,20.50
2018-11-06T10:15:14.552Z,23.23
2018-11-06T10:17:43.087Z,21.53
2018-11-06T10:20:11.464Z,21.70
2018-11-06T10:22:38.917Z,20.50
2018-11-06T10:25:15.123Z,21.23
2018-11-06T10:27:42.654Z,20.30
2018-11-06T10:30:13.970Z,19.50
2018-11-06T10:32:42.046Z,21.47
2018-11-06T10:35:10.954Z,21.07
2018-11-06T10:37:40.372Z,20.00
2018-11-06T10:40:19.867Z,19.67
2018-11-06T10:42:48.793Z,19.47
2018-11-06T10:45:16.929Z,18.93
2018-11-06T10:47:46.123Z,19.13
2018-11-06T10:50:14.356Z,18.17
2018-11-06T10:52:42.199Z,16.27
2018-11-06T10:55:10.095Z,15.77
2018-11-06T10:57:39.196Z,17.13
2018-11-06T11:00:13.366Z,15.37
2018-11-06T11:02:46.504Z,16.73
2018-11-06T11:05:14.379Z,16.37
2018-11-06T11:07:41.867Z,16.70
2018-11-06T11:10:09.356Z,17.20
2018-11-06T11:12:37.711Z,21.47
2018-11-06T11:15:05.354Z,17.50
2018-11-06T11:17:32.836Z,18.27
2018-11-06T11:20:01.220Z,18.43
2018-11-06T11:22:28.694Z,17.37
2018-11-06T11:24:56.263Z,17.80
2018-11-06T11:27:23.740Z,17.13
2018-11-06T11:29:51.175Z,17.43
2018-11-06T11:32:19.796Z,17.37
2018-11-06T11:34:47.259Z,17.67
2018-11-06T11:37:15.640Z,18.20
2018-11-06T11:39:43.200Z,18.67
2018-11-06T11:42:10.700Z,17.17
2018-11-06T11:44:38.677Z,18.17
2018-11-06T11:47:06.316Z,17.80
2018-11-06T11:49:34.941Z,17.13
2018-11-06T11:52:02.398Z,17.70
2018-11-06T11:54:29.915Z,16.30
2018-11-06T11:56:57.371Z,16.33
2018-11-06T11:59:24.867Z,17.47
2018-11-06T12:01:52.317Z,17.03
2018-11-06T12:04:19.775Z,15.83
2018-11-06T12:06:47.243Z,17.20
2018-11-06T12:09:14.683Z,17.03
2018-11-06T12:11:42.264Z,18.40
2018-11-06T12:14:09.738Z,17.20
2018-11-06T12:16:37.160Z,16.97
2018-11-06T12:19:04.675Z,16.73
2018-11-06T12:21:32.140Z,17.53
2018-11-06T12:23:59.663Z,16.50
2018-11-06T12:26:27.092Z,15.63
2018-11-06T12:28:54.613Z,14.77
2018-11-06T12:31:22.159Z,15.97
2018-11-06T12:33:50.455Z,17.27
2018-11-06T12:36:17.952Z,15.27
2018-11-06T12:38:45.483Z,16.10
2018-11-06T12:41:12.960Z,16.23
2018-11-06T12:43:40.514Z,15.10
2018-11-06T12:46:08.057Z,15.50
2018-11-06T12:48:35.551Z,15.37
2018-11-06T12:51:03.244Z,15.50
2018-11-06T12:53:30.815Z,14.83
2018-11-06T12:55:58.259Z,15.63
2018-11-06T12:58:25.689Z,14.60
2018-11-06T13:00:53.168Z,14.57
2018-11-06T13:03:20.653Z,15.40
2018-11-06T13:05:48.068Z,13.53
2018-11-06T13:08:15.735Z,13.90
2018-11-06T13:10:44.253Z,14.40
2018-11-06T13:13:11.768Z,14.17
2018-11-06T13:15:39.269Z,13.80
2018-11-06T13:18:06.771Z,13.50
2018-11-06T13:20:34.251Z,13.83
2018-11-06T13:23:01.720Z,14.40
2018-11-06T13:25:29.215Z,14.03
2018-11-06T13:28:00.680Z,14.50
2018-11-06T13:30:28.308Z,14.53
2018-11-06T13:32:55.803Z,13.60
2018-11-06T13:35:23.258Z,13.40
2018-11-06T13:37:50.816Z,13.90
2018-11-06T13:40:18.275Z,13.27
2018-11-06T13:42:46.482Z,14.70
2018-11-06T13:45:17.958Z,13.93
2018-11-06T13:47:45.337Z,14.43
2018-11-06T13:50:12.796Z,15.00
2018-11-06T13:52:40.336Z,13.70
2018-11-06T13:55:10.816Z,13.17
2018-11-06T13:57:47.828Z,14.53
2018-11-06T14:00:19.898Z,14.27
2018-11-06T14:02:47.537Z,13.93
2018-11-06T14:05:15.440Z,13.23
2018-11-06T14:07:42.981Z,14.57
2018-11-06T14:10:10.495Z,15.83
2018-11-06T14:12:38.118Z,13.83
2018-11-06T14:15:05.913Z,13.43
2018-11-06T14:17:33.373Z,13.67
2018-11-06T14:20:00.832Z,14.43
2018-11-06T14:22:28.511Z,14.63
2018-11-06T14:24:56.024Z,14.73
2018-11-06T14:27:23.529Z,14.40
2018-11-06T14:29:51.242Z,14.73
2018-11-06T14:32:19.016Z,14.93
2018-11-06T14:34:47.100Z,16.33
2018-11-06T14:37:14.604Z,15.53
2018-11-06T14:39:42.057Z,16.47
2018-11-06T14:42:10.760Z,14.23
2018-11-06T14:44:38.257Z,15.47
2018-11-06T14:47:05.782Z,15.73
2018-11-06T14:49:33.748Z,15.07
2018-11-06T14:52:01.239Z,14.70
2018-11-06T14:54:28.660Z,14.90
2018-11-06T14:56:56.156Z,15.13
2018-11-06T14:59:23.636Z,14.53
2018-11-06T15:01:51.157Z,16.30
2018-11-06T15:04:18.639Z,15.60
2018-11-06T15:06:46.130Z,15.60
2018-11-06T15:09:14.254Z,16.33
2018-11-06T15:11:43.165Z,15.37
2018-11-06T15:14:10.715Z,16.00
2018-11-06T15:16:38.180Z,16.10
2018-11-06T15:19:05.721Z,15.47
2018-11-06T15:21:33.208Z,16.13
2018-11-06T15:24:00.670Z,16.30
2018-11-06T15:26:28.255Z,15.63
2018-11-06T15:28:55.677Z,16.00
2018-11-06T15:31:23.215Z,15.97
2018-11-06T15:33:50.780Z,15.93
2018-11-06T15:36:18.352Z,16.50
2018-11-06T15:38:46.195Z,17.73
2018-11-06T15:41:16.775Z,17.50
2018-11-06T15:43:44.119Z,16.83
2018-11-06T15:46:11.595Z,20.90
2018-11-06T15:48:39.078Z,19.17
2018-11-06T15:51:07.988Z,19.37
2018-11-06T15:53:35.525Z,24.43
2018-11-06T15:56:03.050Z,17.10
2018-11-06T15:58:30.476Z,17.07
2018-11-06T16:00:57.970Z,17.63
2018-11-06T16:03:30.255Z,17.93
2018-11-06T16:05:57.730Z,17.17
2018-11-06T16:08:25.325Z,17.10
2018-11-06T16:10:52.616Z,16.57
2018-11-06T16:13:20.091Z,17.03
2018-11-06T16:15:47.635Z,18.50
2018-11-06T16:18:15.100Z,17.13
2018-11-06T16:20:42.590Z,16.73
2018-11-06T16:23:09.971Z,17.50
2018-11-06T16:25:37.431Z,16.53
2018-11-06T16:28:05.383Z,16.30
2018-11-06T16:30:32.890Z,16.43
2018-11-06T16:33:00.402Z,16.93
2018-11-06T16:35:27.903Z,17.37
2018-11-06T16:37:55.412Z,16.93
2018-11-06T16:40:22.881Z,16.40
2018-11-06T16:42:50.500Z,20.50
2018-11-06T16:45:21.091Z,20.90
2018-11-06T16:47:49.444Z,19.53
2018-11-06T16:50:23.642Z,18.93
2018-11-06T16:52:51.141Z,17.80
2018-11-06T16:58:16.636Z,18.33
2018-11-06T17:00:44.202Z,17.67
2018-11-06T17:03:11.571Z,18.67
2018-11-06T17:05:39.837Z,18.27
2018-11-06T17:08:07.308Z,17.70
2018-11-06T17:10:34.760Z,18.47
2018-11-06T17:13:02.191Z,16.87
2018-11-06T17:15:29.768Z,18.67
2018-11-06T17:17:57.235Z,21.93
2018-11-06T17:20:24.750Z,19.90
2018-11-06T17:22:52.285Z,20.30
2018-11-06T17:25:21.088Z,31.07
2018-11-06T17:27:48.534Z,28.83
2018-11-06T17:30:17.034Z,25.37
2018-11-06T17:32:44.697Z,26.97
2018-11-06T17:35:13.749Z,28.83
2018-11-06T17:37:41.581Z,36.07
2018-11-06T17:40:11.416Z,37.30
2018-11-06T17:42:39.574Z,37.30
2018-11-06T17:45:11.720Z,29.37
2018-11-06T17:47:43.245Z,33.27
2018-11-06T17:50:11.951Z,35.83
2018-11-06T17:52:39.434Z,41.27
2018-11-06T17:55:08.505Z,52.50
2018-11-06T17:57:36.604Z,44.57
2018-11-06T18:00:06.145Z,34.77
2018-11-06T18:02:33.594Z,47.50
2018-11-06T18:05:01.040Z,49.63
2018-11-06T18:07:30.719Z,39.60
2018-11-06T18:09:58.160Z,41.30
2018-11-06T18:12:25.939Z,46.73
2018-11-06T18:14:53.387Z,40.43
2018-11-06T18:17:21.546Z,42.00
2018-11-06T18:19:49.145Z,51.03
2018-11-06T18:22:16.679Z,45.60
2018-11-06T18:24:44.132Z,40.93
2018-11-06T18:27:11.640Z,43.80
2018-11-06T18:29:39.153Z,44.90
2018-11-06T18:32:06.840Z,40.20
2018-11-06T18:34:34.390Z,40.97
2018-11-06T18:37:02.016Z,43.63
2018-11-06T18:39:33.361Z,44.67
2018-11-06T18:42:00.915Z,45.47
2018-11-06T18:44:28.385Z,53.93
2018-11-06T18:46:55.889Z,47.27
2018-11-06T18:49:23.457Z,45.73
2018-11-06T18:51:51.042Z,43.87
2018-11-06T18:54:18.488Z,43.37
2018-11-06T18:56:45.998Z,42.50
2018-11-06T18:59:13.459Z,44.80
2018-11-06T19:01:41.052Z,44.73
2018-11-06T19:04:08.559Z,45.97
2018-11-06T19:06:40.059Z,45.57
2018-11-06T19:09:08.543Z,44.73
2018-11-06T19:11:36.124Z,43.37
2018-11-06T19:14:03.667Z,44.23
2018-11-06T19:16:31.197Z,45.53
2018-11-06T19:18:58.627Z,43.17
2018-11-06T19:21:26.099Z,45.33
2018-11-06T19:23:54.770Z,42.93
2018-11-06T19:26:23.287Z,42.43
2018-11-06T19:28:50.744Z,42.47
2018-11-06T19:31:18.227Z,42.53
2018-11-06T19:33:45.948Z,42.37
2018-11-06T19:36:13.431Z,43.27
2018-11-06T19:38:41.378Z,42.53
2018-11-06T19:41:09.153Z,40.67
2018-11-06T19:43:37.276Z,39.77
2018-11-06T19:46:06.807Z,41.13
2018-11-06T19:51:57.885Z,38.63
2018-11-06T19:54:25.417Z,42.73
2018-11-06T19:56:53.044Z,42.13
2018-11-06T19:59:22.079Z,44.60
2018-11-06T20:01:49.548Z,44.10
2018-11-06T20:04:17.173Z,43.63
2018-11-06T20:06:44.629Z,42.10
2018-11-06T20:09:12.211Z,40.97
2018-11-06T20:11:39.878Z,39.63
2018-11-06T20:14:07.992Z,41.97
2018-11-06T20:16:35.440Z,41.07
2018-11-06T20:19:03.008Z,36.97
2018-11-06T20:21:30.553Z,39.60
2018-11-06T20:23:58.102Z,36.57
2018-11-06T20:26:25.723Z,40.43
2018-11-06T20:28:53.191Z,41.90
2018-11-06T20:31:21.243Z,40.77
2018-11-06T20:33:48.822Z,42.57
2018-11-06T20:36:16.263Z,40.00
2018-11-06T20:38:43.739Z,44.17
2018-11-06T20:41:11.300Z,42.70
2018-11-06T20:43:38.747Z,41.30
2018-11-06T20:46:06.277Z,43.53
2018-11-06T20:48:33.767Z,41.27
2018-11-06T20:51:01.181Z,45.00
2018-11-06T20:53:28.704Z,42.90
2018-11-06T20:55:56.143Z,43.87
2018-11-06T20:58:23.563Z,47.97
2018-11-06T21:00:51.035Z,49.03
2018-11-06T21:03:18.521Z,50.20
2018-11-06T21:05:46.041Z,50.63
2018-11-06T21:08:13.470Z,46.20
2018-11-06T21:10:40.904Z,49.77
2018-11-06T21:13:08.390Z,49.73
2018-11-06T21:15:35.820Z,48.67
2018-11-06T21:18:03.386Z,51.03
2018-11-06T21:20:31.126Z,50.00
2018-11-06T21:22:58.578Z,49.63
2018-11-06T21:25:26.185Z,45.63
2018-11-06T21:27:53.504Z,47.97
2018-11-06T21:30:21.347Z,48.37
2018-11-06T21:32:50.755Z,49.43
2018-11-06T21:35:18.276Z,49.80
2018-11-06T21:37:45.731Z,48.33
2018-11-06T21:40:16.125Z,50.97
2018-11-06T21:42:44.395Z,52.63
2018-11-06T21:45:12.772Z,49.37
2018-11-06T21:47:41.660Z,47.30
2018-11-06T21:50:10.452Z,47.23
2018-11-06T21:52:39.159Z,46.97
2018-11-06T21:55:07.573Z,48.17
2018-11-06T21:57:35.050Z,45.83
2018-11-06T22:00:02.631Z,49.17
2018-11-06T22:02:30.202Z,47.73
2018-11-06T22:04:57.655Z,47.73
2018-11-06T22:07:25.488Z,47.27
2018-11-06T22:09:54.848Z,46.97
2018-11-06T22:12:25.420Z,50.20
2018-11-06T22:14:54.501Z,48.43
2018-11-06T22:17:21.952Z,50.07
2018-11-06T22:19:49.443Z,47.70
2018-11-06T22:22:18.294Z,47.90
2018-11-06T22:24:46.173Z,45.77
2018-11-06T22:27:14.513Z,44.33
2018-11-06T22:29:42.864Z,46.60
2018-11-06T22:32:10.726Z,45.17
2018-11-06T22:34:38.233Z,45.10
2018-11-06T22:37:05.780Z,44.43
2018-11-06T22:39:33.245Z,47.33
2018-11-06T22:42:00.931Z,44.33
2018-11-06T22:44:28.402Z,47.37
2018-11-06T22:46:55.959Z,45.57
2018-11-06T22:49:23.531Z,44.07
2018-11-06T22:51:51.054Z,44.90
2018-11-06T22:54:19.533Z,43.23
2018-11-06T22:56:47.123Z,42.90
2018-11-06T22:59:14.620Z,42.07
2018-11-06T23:01:42.101Z,43.67
2018-11-06T23:04:09.809Z,44.23
2018-11-06T23:06:37.460Z,42.67
2018-11-06T23:09:07.861Z,42.37
2018-11-06T23:11:35.477Z,40.80
2018-11-06T23:14:03.160Z,40.73
2018-11-06T23:16:30.879Z,41.73
2018-11-06T23:18:58.354Z,40.40
2018-11-06T23:21:25.856Z,39.50
2018-11-06T23:23:53.312Z,40.97
2018-11-06T23:26:21.018Z,40.50
2018-11-06T23:28:48.431Z,42.30
2018-11-06T23:31:16.052Z,43.57
2018-11-06T23:33:43.975Z,42.00
2018-11-06T23:36:12.182Z,43.10
2018-11-06T23:38:39.677Z,40.93
2018-11-06T23:41:07.285Z,41.33
2018-11-06T23:43:35.180Z,40.23
2018-11-06T23:46:02.907Z,41.23
2018-11-06T23:48:30.360Z,40.03
2018-11-06T23:50:57.994Z,38.83
2018-11-06T23:53:25.768Z,39.63
2018-11-06T23:55:53.203Z,37.47
2018-11-06T23:58:20.637Z,37.63
